Time,TemperatureF,DewpointF,PressureIn,WindDirection,WindDirectionDegrees,WindSpeedMPH,WindSpeedGustMPH,Humidity,HourlyPrecipIn,Conditions,Clouds,dailyrainin,SoftwareType,DateUTC
2013-01-16 00:10:00,33.2,29.0,29.97,WNW,286,0.0,0.0,83,0.00,,,0.00,weatherlink.com 1.10,2013-01-16 08:10:00,
2013-01-16 00:25:00,32.4,28.0,29.97,WNW,286,0.0,0.0,85,0.00,,,0.00,weatherlink.com 1.10,2013-01-16 08:25:00,
2013-01-16 00:40:00,32.5,29.0,29.97,WNW,286,0.0,0.0,86,0.00,,,0.00,weatherlink.com 1.10,2013-01-16 08:40:00,
2013-01-16 00:55:00,32.9,29.0,29.97,WNW,290,1.0,2.0,86,0.00,,,0.00,weatherlink.com 1.10,2013-01-16 08:55:00,
2013-01-16 01:10:00,33.2,29.0,29.97,WNW,282,1.0,3.0,85,0.00,,,0.00,weatherlink.com 1.10,2013-01-16 09:10:00,
2013-01-16 01:25:00,33.2,29.0,29.97,WNW,298,2.0,3.0,83,0.00,,,0.00,weatherlink.com 1.10,2013-01-16 09:25:00,
2013-01-16 01:40:00,33.5,29.0,29.97,NW,307,2.0,4.0,83,0.00,,,0.00,weatherlink.com 1.10,2013-01-16 09:40:00,
2013-01-16 01:55:00,33.1,29.0,29.97,NW,308,2.0,4.0,83,0.00,,,0.00,weatherlink.com 1.10,2013-01-16 09:55:00,
2013-01-16 02:10:00,32.6,28.0,29.97,NW,307,0.0,2.0,84,0.00,,,0.00,weatherlink.com 1.10,2013-01-16 10:10:00,
2013-01-16 02:25:00,32.6,28.0,29.97,NW,324,2.0,5.0,84,0.00,,,0.00,weatherlink.com 1.10,2013-01-16 10:25:00,
2013-01-16 02:40:00,32.3,28.0,29.97,NW,314,2.0,3.0,85,0.00,,,0.00,weatherlink.com 1.10,2013-01-16 10:40:00,
2013-01-16 02:55:00,31.9,28.0,29.97,NW,319,2.0,3.0,86,0.00,,,0.00,weatherlink.com 1.10,2013-01-16 10:55:00,
2013-01-16 03:10:00,31.9,28.0,29.97,NW,321,2.0,3.0,84,0.00,,,0.00,weatherlink.com 1.10,2013-01-16 11:10:00,
2013-01-16 03:25:00,31.9,28.0,29.97,NNW,338,2.0,3.0,85,0.00,,,0.00,weatherlink.com 1.10,2013-01-16 11:25:00,
2013-01-16 03:40:00,31.5,28.0,29.97,North,360,1.0,3.0,85,0.00,,,0.00,weatherlink.com 1.10,2013-01-16 11:40:00,
2013-01-16 03:55:00,30.7,27.0,29.97,NNE,15,3.0,3.0,87,0.00,,,0.00,weatherlink.com 1.10,2013-01-16 11:55:00,
2013-01-16 04:10:00,30.4,27.0,29.97,NNE,15,1.0,3.0,87,0.00,,,0.00,weatherlink.com 1.10,2013-01-16 12:10:00,
2013-01-16 04:25:00,30.7,28.0,29.97,North,9,0.0,2.0,89,0.00,,,0.00,weatherlink.com 1.10,2013-01-16 12:25:00,
2013-01-16 04:40:00,31.0,28.0,29.97,North,9,0.0,1.0,87,0.00,,,0.00,weatherlink.com 1.10,2013-01-16 12:40:00,
2013-01-16 04:55:00,30.3,27.0,29.97,North,5,0.0,0.0,87,0.00,,,0.00,weatherlink.com 1.10,2013-01-16 12:55:00,
2013-01-16 05:10:00,29.8,27.0,30.32,NW,315,0.0,1.0,88,0.00,,,0.00,weatherlink.com 1.10,2013-01-16 13:10:00,
2013-01-16 05:25:00,29.6,27.0,30.32,WSW,254,0.0,2.0,88,0.00,,,0.00,weatherlink.com 1.10,2013-01-16 13:25:00,
2013-01-16 05:40:00,30.1,27.0,30.32,West,271,0.0,2.0,88,0.00,,,0.00,weatherlink.com 1.10,2013-01-16 13:40:00,
2013-01-16 05:55:00,29.5,26.0,30.32,West,281,1.0,2.0,88,0.00,,,0.00,weatherlink.com 1.10,2013-01-16 13:55:00,
2013-01-16 06:10:00,29.4,26.0,30.32,West,279,0.0,2.0,88,0.00,,,0.00,weatherlink.com 1.10,2013-01-16 14:10:00,
2013-01-16 06:25:00,29.1,26.0,30.32,WSW,248,0.0,1.0,89,0.00,,,0.00,weatherlink.com 1.10,2013-01-16 14:25:00,
2013-01-16 06:40:00,29.1,26.0,30.32,WSW,247,0.0,0.0,88,0.00,,,0.00,weatherlink.com 1.10,2013-01-16 14:40:00,
2013-01-16 06:55:00,28.4,26.0,30.32,WSW,247,0.0,0.0,89,0.00,,,0.00,weatherlink.com 1.10,2013-01-16 14:55:00,
2013-01-16 07:10:00,28.5,26.0,30.32,WSW,247,0.0,0.0,90,0.00,,,0.00,weatherlink.com 1.10,2013-01-16 15:10:00,
2013-01-16 07:26:00,29.5,27.0,30.32,WSW,247,0.0,0.0,89,0.00,,,0.00,weatherlink.com 1.10,2013-01-16 15:26:00,
2013-01-16 07:41:00,29.9,26.0,30.32,WSW,247,0.0,0.0,86,0.00,,,0.00,weatherlink.com 1.10,2013-01-16 15:41:00,
2013-01-16 07:56:00,30.1,27.0,30.32,WSW,245,1.0,2.0,87,0.00,,,0.00,weatherlink.com 1.10,2013-01-16 15:56:00,
2013-01-16 08:11:00,31.7,28.0,30.32,NW,317,0.0,1.0,86,0.00,,,0.00,weatherlink.com 1.10,2013-01-16 16:11:00,
2013-01-16 08:26:00,33.7,29.0,30.32,NW,318,0.0,0.0,84,0.00,,,0.00,weatherlink.com 1.10,2013-01-16 16:26:00,
2013-01-16 08:41:00,35.5,30.0,30.32,NNW,348,0.0,1.0,81,0.00,,,0.00,weatherlink.com 1.10,2013-01-16 16:41:00,
2013-01-16 08:56:00,37.3,30.0,30.32,North,355,0.0,1.0,76,0.00,,,0.00,weatherlink.com 1.10,2013-01-16 16:56:00,
2013-01-16 09:11:00,37.2,31.0,30.32,NNE,28,1.0,4.0,77,0.00,,,0.00,weatherlink.com 1.10,2013-01-16 17:11:00,
2013-01-16 09:26:00,38.4,32.0,30.32,NNE,26,2.0,3.0,77,0.00,,,0.00,weatherlink.com 1.10,2013-01-16 17:26:00,
2013-01-16 09:41:00,40.7,33.0,30.32,ENE,59,0.0,2.0,73,0.00,,,0.00,weatherlink.com 1.10,2013-01-16 17:41:00,
2013-01-16 09:56:00,40.8,33.0,30.32,NNE,19,2.0,4.0,73,0.00,,,0.00,weatherlink.com 1.10,2013-01-16 17:56:00,
2013-01-16 10:11:00,42.1,34.0,30.32,ESE,108,2.0,4.0,72,0.00,,,0.00,weatherlink.com 1.10,2013-01-16 18:11:00,
2013-01-16 10:26:00,44.0,35.0,30.32,SE,132,3.0,4.0,71,0.00,,,0.00,weatherlink.com 1.10,2013-01-16 18:26:00,
2013-01-16 10:41:00,44.7,35.0,30.32,SE,141,3.0,4.0,68,0.00,,,0.00,weatherlink.com 1.10,2013-01-16 18:41:00,
2013-01-16 10:56:00,45.7,35.0,30.32,SSE,155,2.0,5.0,66,0.00,,,0.00,weatherlink.com 1.10,2013-01-16 18:56:00,
2013-01-16 11:11:00,47.4,36.0,30.32,SE,124,4.0,4.0,64,0.00,,,0.00,weatherlink.com 1.10,2013-01-16 19:11:00,
2013-01-16 11:26:00,48.6,37.0,30.32,SE,139,2.0,5.0,64,0.00,,,0.00,weatherlink.com 1.10,2013-01-16 19:26:00,
2013-01-16 11:41:00,48.8,33.0,30.32,SSE,153,4.0,6.0,55,0.00,,,0.00,weatherlink.com 1.10,2013-01-16 19:41:00,
2013-01-16 11:57:00,51.3,36.0,30.32,South,190,0.0,5.0,57,0.00,,,0.00,weatherlink.com 1.10,2013-01-16 19:57:00,
2013-01-16 12:12:00,51.2,33.0,30.32,ESE,114,2.0,5.0,51,0.00,,,0.00,weatherlink.com 1.10,2013-01-16 20:12:00,
2013-01-16 12:27:00,52.5,34.0,30.32,South,171,0.0,5.0,50,0.00,,,0.00,weatherlink.com 1.10,2013-01-16 20:27:00,
2013-01-16 12:42:00,55.3,35.0,30.32,SW,236,1.0,7.0,46,0.00,,,0.00,weatherlink.com 1.10,2013-01-16 20:42:00,
2013-01-16 12:57:00,55.2,33.0,30.32,South,188,4.0,5.0,43,0.00,,,0.00,weatherlink.com 1.10,2013-01-16 20:57:00,
2013-01-16 13:12:00,55.9,35.0,30.32,SSE,163,2.0,3.0,45,0.00,,,0.00,weatherlink.com 1.10,2013-01-16 21:12:00,
2013-01-16 13:27:00,54.9,33.0,30.32,South,170,2.0,5.0,44,0.00,,,0.00,weatherlink.com 1.10,2013-01-16 21:27:00,
2013-01-16 13:42:00,55.3,31.0,30.32,NNW,345,1.0,4.0,40,0.00,,,0.00,weatherlink.com 1.10,2013-01-16 21:42:00,
2013-01-16 13:57:00,56.2,31.0,30.32,NW,305,0.0,4.0,39,0.00,,,0.00,weatherlink.com 1.10,2013-01-16 21:57:00,
2013-01-16 14:12:00,58.4,34.0,30.32,West,263,1.0,5.0,40,0.00,,,0.00,weatherlink.com 1.10,2013-01-16 22:12:00,
2013-01-16 14:27:00,58.3,34.0,30.32,WNW,302,1.0,2.0,41,0.00,,,0.00,weatherlink.com 1.10,2013-01-16 22:27:00,
2013-01-16 14:42:00,59.3,33.0,30.32,West,278,1.0,5.0,37,0.00,,,0.00,weatherlink.com 1.10,2013-01-16 22:42:00,
2013-01-16 14:57:00,59.6,31.0,30.32,NW,311,3.0,5.0,34,0.00,,,0.00,weatherlink.com 1.10,2013-01-16 22:57:00,
2013-01-16 15:12:00,58.6,34.0,30.32,WSW,257,1.0,3.0,40,0.00,,,0.00,weatherlink.com 1.10,2013-01-16 23:12:00,
2013-01-16 15:27:00,59.4,35.0,30.32,SW,215,0.0,3.0,40,0.00,,,0.00,weatherlink.com 1.10,2013-01-16 23:27:00,
2013-01-16 15:42:00,59.5,34.0,30.32,West,279,2.0,5.0,39,0.00,,,0.00,weatherlink.com 1.10,2013-01-16 23:42:00,
2013-01-16 15:57:00,59.3,33.0,30.32,WNW,302,1.0,5.0,37,0.00,,,0.00,weatherlink.com 1.10,2013-01-16 23:57:00,
2013-01-16 16:12:00,58.9,33.0,30.32,NW,311,5.0,5.0,38,0.00,,,0.00,weatherlink.com 1.10,2013-01-17 00:12:00,
2013-01-16 16:27:00,58.9,34.0,30.32,WNW,294,2.0,4.0,39,0.00,,,0.00,weatherlink.com 1.10,2013-01-17 00:27:00,
2013-01-16 16:42:00,57.8,33.0,30.32,NW,322,4.0,4.0,39,0.00,,,0.00,weatherlink.com 1.10,2013-01-17 00:42:00,
2013-01-16 16:57:00,55.8,33.0,30.32,WNW,295,3.0,4.0,42,0.00,,,0.00,weatherlink.com 1.10,2013-01-17 00:57:00,
2013-01-16 17:12:00,53.5,33.0,30.32,WNW,295,2.0,3.0,46,0.00,,,0.00,weatherlink.com 1.10,2013-01-17 01:12:00,
2013-01-16 17:27:00,51.8,33.0,30.32,WNW,297,1.0,4.0,49,0.00,,,0.00,weatherlink.com 1.10,2013-01-17 01:27:00,
2013-01-16 17:42:00,50.3,34.0,30.32,NW,310,3.0,5.0,54,0.00,,,0.00,weatherlink.com 1.10,2013-01-17 01:42:00,
2013-01-16 17:57:00,48.6,34.0,30.32,WNW,294,1.0,5.0,58,0.00,,,0.00,weatherlink.com 1.10,2013-01-17 01:57:00,
2013-01-16 18:12:00,46.1,34.0,30.32,NW,313,3.0,3.0,62,0.00,,,0.00,weatherlink.com 1.10,2013-01-17 02:12:00,
2013-01-16 18:27:00,45.3,35.0,30.32,NW,317,3.0,5.0,68,0.00,,,0.00,weatherlink.com 1.10,2013-01-17 02:27:00,
2013-01-16 18:42:00,44.0,34.0,30.32,NW,315,2.0,3.0,67,0.00,,,0.00,weatherlink.com 1.10,2013-01-17 02:42:00,
2013-01-16 18:57:00,43.4,34.0,30.32,NW,324,2.0,3.0,69,0.00,,,0.00,weatherlink.com 1.10,2013-01-17 02:57:00,
2013-01-16 19:12:00,43.0,34.0,30.32,NNW,328,2.0,3.0,71,0.00,,,0.00,weatherlink.com 1.10,2013-01-17 03:12:00,
2013-01-16 19:27:00,42.5,34.0,30.32,NNW,342,2.0,3.0,72,0.00,,,0.00,weatherlink.com 1.10,2013-01-17 03:27:00,
2013-01-16 19:42:00,42.9,40.0,30.32,NNW,336,2.0,4.0,90,0.00,,,0.00,weatherlink.com 1.10,2013-01-17 03:42:00,
2013-01-16 19:57:00,42.2,34.0,30.32,NNW,344,2.0,3.0,74,0.00,,,0.00,weatherlink.com 1.10,2013-01-17 03:57:00,
2013-01-16 20:12:00,41.2,34.0,30.32,NNW,348,2.0,3.0,75,0.00,,,0.00,weatherlink.com 1.10,2013-01-17 04:12:00,
2013-01-16 20:27:00,39.5,33.0,30.32,NNE,15,3.0,3.0,77,0.00,,,0.00,weatherlink.com 1.10,2013-01-17 04:27:00,
2013-01-16 20:42:00,40.3,34.0,30.32,North,355,2.0,3.0,78,0.00,,,0.00,weatherlink.com 1.10,2013-01-17 04:42:00,
2013-01-16 20:57:00,40.8,34.0,30.32,NNW,340,2.0,3.0,76,0.00,,,0.00,weatherlink.com 1.10,2013-01-17 04:57:00,
2013-01-16 21:12:00,40.9,34.0,30.32,North,360,2.0,3.0,77,0.00,,,0.00,weatherlink.com 1.10,2013-01-17 05:12:00,
2013-01-16 21:27:00,39.7,34.0,30.32,North,5,1.0,3.0,79,0.00,,,0.00,weatherlink.com 1.10,2013-01-17 05:27:00,
2013-01-16 21:42:00,40.1,34.0,30.32,NE,36,0.0,2.0,79,0.00,,,0.00,weatherlink.com 1.10,2013-01-17 05:42:00,
2013-01-16 21:57:00,37.4,32.0,30.32,SW,221,2.0,4.0,82,0.00,,,0.00,weatherlink.com 1.10,2013-01-17 05:57:00,
2013-01-16 22:12:00,37.3,33.0,30.32,SW,219,1.0,3.0,84,0.00,,,0.00,weatherlink.com 1.10,2013-01-17 06:12:00,
2013-01-16 22:27:00,37.5,33.0,30.32,SW,219,0.0,2.0,85,0.00,,,0.00,weatherlink.com 1.10,2013-01-17 06:27:00,
2013-01-16 22:42:00,37.4,33.0,30.32,SW,219,0.0,2.0,85,0.00,,,0.00,weatherlink.com 1.10,2013-01-17 06:42:00,
2013-01-16 22:57:00,36.4,33.0,30.32,SW,219,0.0,0.0,86,0.00,,,0.00,weatherlink.com 1.10,2013-01-17 06:57:00,
2013-01-16 23:12:00,34.8,32.0,30.32,WSW,240,1.0,2.0,88,0.00,,,0.00,weatherlink.com 1.10,2013-01-17 07:12:00,
2013-01-16 23:27:00,34.6,32.0,30.32,NW,326,0.0,1.0,90,0.00,,,0.00,weatherlink.com 1.10,2013-01-17 07:27:00,
2013-01-16 23:42:00,35.1,32.0,30.32,NW,326,0.0,0.0,88,0.00,,,0.00,weatherlink.com 1.10,2013-01-17 07:42:00,
2013-01-16 23:57:00,35.4,32.0,30.32,NW,326,1.0,2.0,88,0.00,,,0.00,weatherlink.com 1.10,2013-01-17 07:57:00,